sensor_id;sensor_type;location;lat;lon;timestamp;P1;durP1;ratioP1;P2;durP2;ratioP2
58252;SDS011;44050;48.884;8.762;2023-03-01T00:00:20;7.57;;;5.67;;
58252;SDS011;44050;48.884;8.762;2023-03-01T00:02:51;6.57;;;5.88;;
58252;SDS011;44050;48.884;8.762;2023-03-01T00:05:22;6.53;;;5.37;;
58252;SDS011;44050;48.884;8.762;2023-03-01T00:07:53;7.10;;;4.60;;
58252;SDS011;44050;48.884;8.762;2023-03-01T00:10:23;12.40;;;5.18;;
58252;SDS011;44050;48.884;8.762;2023-03-01T00:12:54;5.50;;;3.23;;
58252;SDS011;44050;48.884;8.762;2023-03-01T00:15:26;9.43;;;5.05;;
58252;SDS011;44050;48.884;8.762;2023-03-01T00:18:00;6.57;;;4.75;;
58252;SDS011;44050;48.884;8.762;2023-03-01T00:20:32;9.30;;;7.10;;
58252;SDS011;44050;48.884;8.762;2023-03-01T00:23:02;6.47;;;5.72;;
58252;SDS011;44050;48.884;8.762;2023-03-01T00:25:33;5.27;;;4.77;;
58252;SDS011;44050;48.884;8.762;2023-03-01T00:28:11;6.82;;;5.55;;
58252;SDS011;44050;48.884;8.762;2023-03-01T00:30:41;8.50;;;5.83;;
58252;SDS011;44050;48.884;8.762;2023-03-01T00:33:12;8.60;;;4.70;;
58252;SDS011;44050;48.884;8.762;2023-03-01T00:35:43;5.37;;;4.53;;
58252;SDS011;44050;48.884;8.762;2023-03-01T00:38:14;6.23;;;4.27;;
58252;SDS011;44050;48.884;8.762;2023-03-01T00:40:45;11.73;;;5.67;;
58252;SDS011;44050;48.884;8.762;2023-03-01T00:43:15;6.67;;;5.37;;
58252;SDS011;44050;48.884;8.762;2023-03-01T00:45:46;9.87;;;5.40;;
58252;SDS011;44050;48.884;8.762;2023-03-01T00:48:17;7.30;;;4.30;;
58252;SDS011;44050;48.884;8.762;2023-03-01T00:50:47;6.57;;;5.27;;
58252;SDS011;44050;48.884;8.762;2023-03-01T00:53:18;6.67;;;4.03;;
58252;SDS011;44050;48.884;8.762;2023-03-01T00:55:49;4.83;;;3.90;;
58252;SDS011;44050;48.884;8.762;2023-03-01T00:58:20;6.55;;;4.85;;
58252;SDS011;44050;48.884;8.762;2023-03-01T01:00:51;7.33;;;4.63;;
58252;SDS011;44050;48.884;8.762;2023-03-01T01:03:23;8.70;;;5.60;;
58252;SDS011;44050;48.884;8.762;2023-03-01T01:05:55;5.18;;;4.43;;
58252;SDS011;44050;48.884;8.762;2023-03-01T01:08:25;8.47;;;5.80;;
58252;SDS011;44050;48.884;8.762;2023-03-01T01:10:56;9.20;;;5.53;;
58252;SDS011;44050;48.884;8.762;2023-03-01T01:13:27;7.17;;;5.27;;
58252;SDS011;44050;48.884;8.762;2023-03-01T01:16:01;8.73;;;3.90;;
58252;SDS011;44050;48.884;8.762;2023-03-01T01:18:32;7.93;;;5.07;;
58252;SDS011;44050;48.884;8.762;2023-03-01T01:21:07;7.43;;;4.38;;
58252;SDS011;44050;48.884;8.762;2023-03-01T01:23:39;5.10;;;4.55;;
58252;SDS011;44050;48.884;8.762;2023-03-01T01:26:11;7.53;;;5.75;;
58252;SDS011;44050;48.884;8.762;2023-03-01T01:28:43;7.80;;;6.15;;
58252;SDS011;44050;48.884;8.762;2023-03-01T01:31:13;8.05;;;5.40;;
58252;SDS011;44050;48.884;8.762;2023-03-01T01:33:44;9.57;;;6.33;;
58252;SDS011;44050;48.884;8.762;2023-03-01T01:36:16;7.20;;;4.60;;
58252;SDS011;44050;48.884;8.762;2023-03-01T01:38:47;6.88;;;4.47;;
58252;SDS011;44050;48.884;8.762;2023-03-01T01:41:17;7.83;;;4.63;;
58252;SDS011;44050;48.884;8.762;2023-03-01T01:44:08;5.18;;;4.70;;
58252;SDS011;44050;48.884;8.762;2023-03-01T01:46:41;5.82;;;4.43;;
58252;SDS011;44050;48.884;8.762;2023-03-01T01:49:17;6.72;;;5.07;;
58252;SDS011;44050;48.884;8.762;2023-03-01T01:51:49;7.68;;;5.13;;
58252;SDS011;44050;48.884;8.762;2023-03-01T01:54:23;8.05;;;5.07;;
58252;SDS011;44050;48.884;8.762;2023-03-01T01:56:58;8.68;;;5.50;;
58252;SDS011;44050;48.884;8.762;2023-03-01T01:59:30;13.02;;;5.20;;
58252;SDS011;44050;48.884;8.762;2023-03-01T02:02:02;6.25;;;4.60;;
58252;SDS011;44050;48.884;8.762;2023-03-01T02:07:07;8.60;;;4.90;;
58252;SDS011;44050;48.884;8.762;2023-03-01T02:09:42;5.75;;;4.45;;
58252;SDS011;44050;48.884;8.762;2023-03-01T02:12:14;9.57;;;5.95;;
58252;SDS011;44050;48.884;8.762;2023-03-01T02:14:45;6.55;;;4.40;;
58252;SDS011;44050;48.884;8.762;2023-03-01T02:17:16;6.57;;;3.40;;
58252;SDS011;44050;48.884;8.762;2023-03-01T02:22:20;6.13;;;4.85;;
58252;SDS011;44050;48.884;8.762;2023-03-01T02:25:12;7.97;;;6.03;;
58252;SDS011;44050;48.884;8.762;2023-03-01T02:27:54;7.68;;;5.03;;
58252;SDS011;44050;48.884;8.762;2023-03-01T02:30:29;5.68;;;4.25;;
58252;SDS011;44050;48.884;8.762;2023-03-01T02:33:00;6.28;;;4.68;;
58252;SDS011;44050;48.884;8.762;2023-03-01T02:35:35;7.07;;;5.82;;
58252;SDS011;44050;48.884;8.762;2023-03-01T02:38:07;5.97;;;4.88;;
58252;SDS011;44050;48.884;8.762;2023-03-01T02:40:39;6.70;;;4.93;;
58252;SDS011;44050;48.884;8.762;2023-03-01T02:43:11;8.15;;;5.45;;
58252;SDS011;44050;48.884;8.762;2023-03-01T02:45:50;5.45;;;4.90;;
58252;SDS011;44050;48.884;8.762;2023-03-01T02:48:23;9.60;;;6.57;;
58252;SDS011;44050;48.884;8.762;2023-03-01T02:53:41;8.38;;;4.72;;
58252;SDS011;44050;48.884;8.762;2023-03-01T02:56:15;5.32;;;4.20;;
58252;SDS011;44050;48.884;8.762;2023-03-01T02:58:46;6.70;;;5.38;;
58252;SDS011;44050;48.884;8.762;2023-03-01T03:01:21;7.38;;;4.07;;
58252;SDS011;44050;48.884;8.762;2023-03-01T03:03:52;5.47;;;4.97;;
58252;SDS011;44050;48.884;8.762;2023-03-01T03:06:23;9.20;;;6.50;;
58252;SDS011;44050;48.884;8.762;2023-03-01T03:08:53;5.80;;;4.37;;
58252;SDS011;44050;48.884;8.762;2023-03-01T03:11:24;7.97;;;5.93;;
58252;SDS011;44050;48.884;8.762;2023-03-01T03:13:55;10.32;;;4.95;;
58252;SDS011;44050;48.884;8.762;2023-03-01T03:16:28;12.10;;;6.75;;
58252;SDS011;44050;48.884;8.762;2023-03-01T03:19:00;7.75;;;5.60;;
58252;SDS011;44050;48.884;8.762;2023-03-01T03:21:35;7.30;;;4.88;;
58252;SDS011;44050;48.884;8.762;2023-03-01T03:24:06;6.00;;;4.73;;
58252;SDS011;44050;48.884;8.762;2023-03-01T03:26:36;11.50;;;5.27;;
58252;SDS011;44050;48.884;8.762;2023-03-01T03:29:07;8.63;;;5.57;;
58252;SDS011;44050;48.884;8.762;2023-03-01T03:31:38;6.60;;;5.47;;
58252;SDS011;44050;48.884;8.762;2023-03-01T03:34:09;9.30;;;6.00;;
58252;SDS011;44050;48.884;8.762;2023-03-01T03:36:48;7.68;;;5.53;;
58252;SDS011;44050;48.884;8.762;2023-03-01T03:39:27;12.65;;;6.97;;
58252;SDS011;44050;48.884;8.762;2023-03-01T03:41:58;5.97;;;4.32;;
58252;SDS011;44050;48.884;8.762;2023-03-01T03:44:28;6.93;;;6.03;;
58252;SDS011;44050;48.884;8.762;2023-03-01T03:46:59;7.57;;;5.20;;
58252;SDS011;44050;48.884;8.762;2023-03-01T03:49:30;7.63;;;5.47;;
58252;SDS011;44050;48.884;8.762;2023-03-01T03:52:01;6.03;;;4.93;;
58252;SDS011;44050;48.884;8.762;2023-03-01T03:54:31;5.40;;;4.10;;
58252;SDS011;44050;48.884;8.762;2023-03-01T03:57:02;5.72;;;4.90;;
58252;SDS011;44050;48.884;8.762;2023-03-01T03:59:34;5.88;;;5.00;;
58252;SDS011;44050;48.884;8.762;2023-03-01T04:02:04;9.13;;;5.63;;
58252;SDS011;44050;48.884;8.762;2023-03-01T04:04:36;7.82;;;5.82;;
58252;SDS011;44050;48.884;8.762;2023-03-01T04:07:06;10.10;;;8.07;;
58252;SDS011;44050;48.884;8.762;2023-03-01T04:09:37;7.30;;;5.43;;
58252;SDS011;44050;48.884;8.762;2023-03-01T04:12:08;10.70;;;6.80;;
58252;SDS011;44050;48.884;8.762;2023-03-01T04:14:39;10.15;;;5.50;;
58252;SDS011;44050;48.884;8.762;2023-03-01T04:17:09;9.70;;;5.67;;
58252;SDS011;44050;48.884;8.762;2023-03-01T04:19:40;7.23;;;5.23;;
58252;SDS011;44050;48.884;8.762;2023-03-01T04:22:14;7.97;;;5.30;;
58252;SDS011;44050;48.884;8.762;2023-03-01T04:24:48;7.88;;;6.13;;
58252;SDS011;44050;48.884;8.762;2023-03-01T04:27:19;4.53;;;3.67;;
58252;SDS011;44050;48.884;8.762;2023-03-01T04:29:50;5.20;;;3.73;;
58252;SDS011;44050;48.884;8.762;2023-03-01T04:32:20;7.53;;;5.68;;
58252;SDS011;44050;48.884;8.762;2023-03-01T04:34:51;9.43;;;6.23;;
58252;SDS011;44050;48.884;8.762;2023-03-01T04:37:22;6.90;;;4.90;;
58252;SDS011;44050;48.884;8.762;2023-03-01T04:39:54;8.13;;;5.20;;
58252;SDS011;44050;48.884;8.762;2023-03-01T04:42:24;9.47;;;5.83;;
58252;SDS011;44050;48.884;8.762;2023-03-01T04:44:55;6.13;;;4.13;;
58252;SDS011;44050;48.884;8.762;2023-03-01T04:47:26;7.60;;;5.72;;
58252;SDS011;44050;48.884;8.762;2023-03-01T04:49:57;13.50;;;6.87;;
58252;SDS011;44050;48.884;8.762;2023-03-01T04:52:28;7.00;;;6.30;;
58252;SDS011;44050;48.884;8.762;2023-03-01T04:54:58;8.07;;;5.87;;
58252;SDS011;44050;48.884;8.762;2023-03-01T04:57:29;7.20;;;4.65;;
58252;SDS011;44050;48.884;8.762;2023-03-01T05:00:01;7.65;;;5.32;;
58252;SDS011;44050;48.884;8.762;2023-03-01T05:02:31;6.78;;;5.07;;
58252;SDS011;44050;48.884;8.762;2023-03-01T05:05:03;6.72;;;5.63;;
58252;SDS011;44050;48.884;8.762;2023-03-01T05:07:36;9.73;;;5.47;;
58252;SDS011;44050;48.884;8.762;2023-03-01T05:10:07;11.73;;;6.07;;
58252;SDS011;44050;48.884;8.762;2023-03-01T05:12:39;7.10;;;5.65;;
58252;SDS011;44050;48.884;8.762;2023-03-01T05:15:13;9.02;;;6.13;;
58252;SDS011;44050;48.884;8.762;2023-03-01T05:17:50;9.77;;;5.57;;
58252;SDS011;44050;48.884;8.762;2023-03-01T05:20:21;10.07;;;5.45;;
58252;SDS011;44050;48.884;8.762;2023-03-01T05:22:56;7.22;;;5.38;;
58252;SDS011;44050;48.884;8.762;2023-03-01T05:25:27;8.10;;;5.75;;
58252;SDS011;44050;48.884;8.762;2023-03-01T05:28:03;11.82;;;7.50;;
58252;SDS011;44050;48.884;8.762;2023-03-01T05:30:34;10.88;;;6.20;;
58252;SDS011;44050;48.884;8.762;2023-03-01T05:33:05;5.27;;;3.30;;
58252;SDS011;44050;48.884;8.762;2023-03-01T05:35:41;8.75;;;5.50;;
58252;SDS011;44050;48.884;8.762;2023-03-01T05:38:12;7.63;;;5.38;;
58252;SDS011;44050;48.884;8.762;2023-03-01T05:40:47;10.95;;;5.47;;
58252;SDS011;44050;48.884;8.762;2023-03-01T05:43:18;14.15;;;6.90;;
58252;SDS011;44050;48.884;8.762;2023-03-01T05:45:49;7.55;;;6.82;;
58252;SDS011;44050;48.884;8.762;2023-03-01T05:48:19;9.97;;;6.47;;
58252;SDS011;44050;48.884;8.762;2023-03-01T05:50:51;8.85;;;6.70;;
58252;SDS011;44050;48.884;8.762;2023-03-01T05:53:22;13.32;;;7.22;;
58252;SDS011;44050;48.884;8.762;2023-03-01T05:55:53;9.93;;;6.63;;
58252;SDS011;44050;48.884;8.762;2023-03-01T05:58:23;13.17;;;8.03;;
58252;SDS011;44050;48.884;8.762;2023-03-01T06:00:55;9.02;;;5.05;;
58252;SDS011;44050;48.884;8.762;2023-03-01T06:03:31;7.93;;;6.15;;
58252;SDS011;44050;48.884;8.762;2023-03-01T06:06:02;20.63;;;7.20;;
58252;SDS011;44050;48.884;8.762;2023-03-01T06:08:33;8.23;;;7.37;;
58252;SDS011;44050;48.884;8.762;2023-03-01T06:11:03;7.57;;;6.50;;
58252;SDS011;44050;48.884;8.762;2023-03-01T06:13:35;11.27;;;6.25;;
58252;SDS011;44050;48.884;8.762;2023-03-01T06:16:06;12.88;;;6.43;;
58252;SDS011;44050;48.884;8.762;2023-03-01T06:18:37;7.75;;;5.93;;
58252;SDS011;44050;48.884;8.762;2023-03-01T06:21:08;9.30;;;6.17;;
58252;SDS011;44050;48.884;8.762;2023-03-01T06:23:39;9.20;;;6.20;;
58252;SDS011;44050;48.884;8.762;2023-03-01T06:26:10;13.23;;;5.63;;
58252;SDS011;44050;48.884;8.762;2023-03-01T06:28:41;9.40;;;6.50;;
58252;SDS011;44050;48.884;8.762;2023-03-01T06:31:11;12.07;;;7.90;;
58252;SDS011;44050;48.884;8.762;2023-03-01T06:33:42;15.07;;;6.70;;
58252;SDS011;44050;48.884;8.762;2023-03-01T06:36:15;9.88;;;7.75;;
58252;SDS011;44050;48.884;8.762;2023-03-01T06:38:49;10.45;;;5.43;;
58252;SDS011;44050;48.884;8.762;2023-03-01T06:41:19;9.10;;;5.67;;
58252;SDS011;44050;48.884;8.762;2023-03-01T06:43:50;7.30;;;5.90;;
58252;SDS011;44050;48.884;8.762;2023-03-01T06:46:21;10.48;;;7.15;;
58252;SDS011;44050;48.884;8.762;2023-03-01T06:48:52;8.57;;;5.68;;
58252;SDS011;44050;48.884;8.762;2023-03-01T06:51:23;7.60;;;5.95;;
58252;SDS011;44050;48.884;8.762;2023-03-01T06:53:54;7.75;;;6.63;;
58252;SDS011;44050;48.884;8.762;2023-03-01T06:56:25;10.90;;;6.03;;
58252;SDS011;44050;48.884;8.762;2023-03-01T06:58:56;10.20;;;6.47;;
58252;SDS011;44050;48.884;8.762;2023-03-01T07:01:27;10.50;;;6.88;;
58252;SDS011;44050;48.884;8.762;2023-03-01T07:03:58;13.77;;;7.95;;
58252;SDS011;44050;48.884;8.762;2023-03-01T07:06:29;9.87;;;8.60;;
58252;SDS011;44050;48.884;8.762;2023-03-01T07:08:59;10.87;;;7.10;;
58252;SDS011;44050;48.884;8.762;2023-03-01T07:11:30;10.57;;;5.90;;
58252;SDS011;44050;48.884;8.762;2023-03-01T07:14:01;8.43;;;6.47;;
58252;SDS011;44050;48.884;8.762;2023-03-01T07:16:32;14.63;;;8.90;;
58252;SDS011;44050;48.884;8.762;2023-03-01T07:19:02;8.90;;;6.33;;
58252;SDS011;44050;48.884;8.762;2023-03-01T07:21:33;10.70;;;6.73;;
58252;SDS011;44050;48.884;8.762;2023-03-01T07:24:07;7.60;;;5.50;;
58252;SDS011;44050;48.884;8.762;2023-03-01T07:26:38;9.68;;;6.75;;
58252;SDS011;44050;48.884;8.762;2023-03-01T07:29:09;10.35;;;7.07;;
58252;SDS011;44050;48.884;8.762;2023-03-01T07:31:40;7.97;;;4.43;;
58252;SDS011;44050;48.884;8.762;2023-03-01T07:34:11;10.57;;;7.13;;
58252;SDS011;44050;48.884;8.762;2023-03-01T07:36:42;7.70;;;5.87;;
58252;SDS011;44050;48.884;8.762;2023-03-01T07:39:13;10.02;;;7.07;;
58252;SDS011;44050;48.884;8.762;2023-03-01T07:41:44;12.03;;;7.73;;
58252;SDS011;44050;48.884;8.762;2023-03-01T07:44:15;10.65;;;7.18;;
58252;SDS011;44050;48.884;8.762;2023-03-01T07:46:47;10.10;;;6.97;;
58252;SDS011;44050;48.884;8.762;2023-03-01T07:49:17;11.47;;;8.07;;
58252;SDS011;44050;48.884;8.762;2023-03-01T07:51:51;11.00;;;6.78;;
58252;SDS011;44050;48.884;8.762;2023-03-01T07:54:22;9.93;;;6.88;;
58252;SDS011;44050;48.884;8.762;2023-03-01T07:56:53;12.13;;;7.30;;
58252;SDS011;44050;48.884;8.762;2023-03-01T07:59:25;12.05;;;8.13;;
58252;SDS011;44050;48.884;8.762;2023-03-01T08:01:59;12.30;;;8.27;;
58252;SDS011;44050;48.884;8.762;2023-03-01T08:04:30;9.93;;;6.73;;
58252;SDS011;44050;48.884;8.762;2023-03-01T08:07:01;8.23;;;6.75;;
58252;SDS011;44050;48.884;8.762;2023-03-01T08:09:34;11.03;;;4.63;;
58252;SDS011;44050;48.884;8.762;2023-03-01T08:12:05;10.93;;;6.57;;
58252;SDS011;44050;48.884;8.762;2023-03-01T08:14:36;13.13;;;7.22;;
58252;SDS011;44050;48.884;8.762;2023-03-01T08:17:07;14.63;;;8.85;;
58252;SDS011;44050;48.884;8.762;2023-03-01T08:19:37;11.85;;;8.68;;
58252;SDS011;44050;48.884;8.762;2023-03-01T08:22:08;8.30;;;7.03;;
58252;SDS011;44050;48.884;8.762;2023-03-01T08:24:39;10.02;;;6.10;;
58252;SDS011;44050;48.884;8.762;2023-03-01T08:27:10;10.83;;;7.33;;
58252;SDS011;44050;48.884;8.762;2023-03-01T08:29:42;8.75;;;7.20;;
58252;SDS011;44050;48.884;8.762;2023-03-01T08:32:13;7.28;;;4.35;;
58252;SDS011;44050;48.884;8.762;2023-03-01T08:34:46;8.23;;;6.40;;
58252;SDS011;44050;48.884;8.762;2023-03-01T08:37:17;9.20;;;8.30;;
58252;SDS011;44050;48.884;8.762;2023-03-01T08:39:48;16.50;;;9.55;;
58252;SDS011;44050;48.884;8.762;2023-03-01T08:42:19;12.00;;;7.07;;
58252;SDS011;44050;48.884;8.762;2023-03-01T08:44:53;10.20;;;7.93;;
58252;SDS011;44050;48.884;8.762;2023-03-01T08:47:25;12.40;;;8.60;;
58252;SDS011;44050;48.884;8.762;2023-03-01T08:52:27;9.73;;;6.50;;
58252;SDS011;44050;48.884;8.762;2023-03-01T08:54:58;10.27;;;7.97;;
58252;SDS011;44050;48.884;8.762;2023-03-01T08:57:29;10.63;;;7.53;;
58252;SDS011;44050;48.884;8.762;2023-03-01T09:00:00;11.70;;;7.07;;
58252;SDS011;44050;48.884;8.762;2023-03-01T09:02:31;15.77;;;8.13;;
58252;SDS011;44050;48.884;8.762;2023-03-01T09:05:01;9.20;;;6.87;;
58252;SDS011;44050;48.884;8.762;2023-03-01T09:07:32;10.60;;;7.20;;
58252;SDS011;44050;48.884;8.762;2023-03-01T09:10:07;13.15;;;7.72;;
58252;SDS011;44050;48.884;8.762;2023-03-01T09:12:38;13.23;;;9.10;;
58252;SDS011;44050;48.884;8.762;2023-03-01T09:15:09;12.73;;;8.43;;
58252;SDS011;44050;48.884;8.762;2023-03-01T09:17:40;12.18;;;8.48;;
58252;SDS011;44050;48.884;8.762;2023-03-01T09:20:11;14.18;;;9.65;;
58252;SDS011;44050;48.884;8.762;2023-03-01T09:22:42;10.98;;;8.85;;
58252;SDS011;44050;48.884;8.762;2023-03-01T09:25:12;12.63;;;9.13;;
58252;SDS011;44050;48.884;8.762;2023-03-01T09:27:43;11.98;;;8.63;;
58252;SDS011;44050;48.884;8.762;2023-03-01T09:30:14;12.43;;;7.13;;
58252;SDS011;44050;48.884;8.762;2023-03-01T09:32:45;8.75;;;6.65;;
58252;SDS011;44050;48.884;8.762;2023-03-01T09:35:15;9.45;;;6.63;;
58252;SDS011;44050;48.884;8.762;2023-03-01T09:37:46;8.55;;;6.72;;
58252;SDS011;44050;48.884;8.762;2023-03-01T09:40:18;13.80;;;9.48;;
58252;SDS011;44050;48.884;8.762;2023-03-01T09:48:00;10.48;;;7.65;;
58252;SDS011;44050;48.884;8.762;2023-03-01T09:53:02;9.07;;;6.80;;
58252;SDS011;44050;48.884;8.762;2023-03-01T09:55:38;7.97;;;6.15;;
58252;SDS011;44050;48.884;8.762;2023-03-01T09:58:28;9.93;;;7.75;;
58252;SDS011;44050;48.884;8.762;2023-03-01T10:03:44;13.18;;;7.57;;
58252;SDS011;44050;48.884;8.762;2023-03-01T10:06:19;7.78;;;6.97;;
58252;SDS011;44050;48.884;8.762;2023-03-01T10:08:55;12.27;;;9.15;;
58252;SDS011;44050;48.884;8.762;2023-03-01T10:11:31;10.90;;;7.72;;
58252;SDS011;44050;48.884;8.762;2023-03-01T10:14:03;9.88;;;7.28;;
58252;SDS011;44050;48.884;8.762;2023-03-01T10:16:46;8.32;;;6.72;;
58252;SDS011;44050;48.884;8.762;2023-03-01T10:19:29;10.75;;;7.93;;
58252;SDS011;44050;48.884;8.762;2023-03-01T10:22:20;8.48;;;7.65;;
58252;SDS011;44050;48.884;8.762;2023-03-01T10:24:51;9.33;;;8.17;;
58252;SDS011;44050;48.884;8.762;2023-03-01T10:27:29;7.85;;;7.10;;
58252;SDS011;44050;48.884;8.762;2023-03-01T10:32:42;19.02;;;8.63;;
58252;SDS011;44050;48.884;8.762;2023-03-01T10:40:29;11.63;;;7.22;;
58252;SDS011;44050;48.884;8.762;2023-03-01T10:45:33;9.10;;;5.70;;
58252;SDS011;44050;48.884;8.762;2023-03-01T10:48:11;7.95;;;7.13;;
58252;SDS011;44050;48.884;8.762;2023-03-01T10:50:47;7.93;;;7.15;;
58252;SDS011;44050;48.884;8.762;2023-03-01T10:58:31;13.82;;;7.68;;
58252;SDS011;44050;48.884;8.762;2023-03-01T11:01:08;8.52;;;7.65;;
58252;SDS011;44050;48.884;8.762;2023-03-01T11:06:24;7.67;;;6.33;;
58252;SDS011;44050;48.884;8.762;2023-03-01T11:08:56;9.23;;;7.25;;
58252;SDS011;44050;48.884;8.762;2023-03-01T11:11:33;9.43;;;8.45;;
58252;SDS011;44050;48.884;8.762;2023-03-01T11:16:48;9.80;;;7.28;;
58252;SDS011;44050;48.884;8.762;2023-03-01T11:19:20;9.50;;;7.10;;
58252;SDS011;44050;48.884;8.762;2023-03-01T11:24:30;10.38;;;7.55;;
58252;SDS011;44050;48.884;8.762;2023-03-01T11:27:03;9.90;;;7.70;;
58252;SDS011;44050;48.884;8.762;2023-03-01T11:29:41;8.13;;;7.03;;
58252;SDS011;44050;48.884;8.762;2023-03-01T11:32:13;8.18;;;6.88;;
58252;SDS011;44050;48.884;8.762;2023-03-01T11:34:47;33.55;;;14.68;;
58252;SDS011;44050;48.884;8.762;2023-03-01T11:37:26;24.90;;;11.52;;
58252;SDS011;44050;48.884;8.762;2023-03-01T11:40:02;11.90;;;8.68;;
58252;SDS011;44050;48.884;8.762;2023-03-01T11:45:15;9.95;;;8.35;;
58252;SDS011;44050;48.884;8.762;2023-03-01T11:50:35;16.38;;;9.90;;
58252;SDS011;44050;48.884;8.762;2023-03-01T11:56:02;12.48;;;8.80;;
58252;SDS011;44050;48.884;8.762;2023-03-01T11:58:38;11.50;;;7.57;;
58252;SDS011;44050;48.884;8.762;2023-03-01T12:09:23;9.80;;;7.82;;
58252;SDS011;44050;48.884;8.762;2023-03-01T12:17:12;9.32;;;7.43;;
58252;SDS011;44050;48.884;8.762;2023-03-01T12:30:39;8.52;;;6.80;;
58252;SDS011;44050;48.884;8.762;2023-03-01T12:38:49;13.05;;;7.60;;
58252;SDS011;44050;48.884;8.762;2023-03-01T12:44:00;10.77;;;7.80;;
58252;SDS011;44050;48.884;8.762;2023-03-01T12:46:35;13.68;;;10.38;;
58252;SDS011;44050;48.884;8.762;2023-03-01T12:49:13;10.70;;;8.07;;
58252;SDS011;44050;48.884;8.762;2023-03-01T12:52:22;9.40;;;6.65;;
58252;SDS011;44050;48.884;8.762;2023-03-01T12:54:42;10.05;;;6.90;;
58252;SDS011;44050;48.884;8.762;2023-03-01T13:02:31;9.20;;;7.68;;
58252;SDS011;44050;48.884;8.762;2023-03-01T13:15:36;11.40;;;7.50;;
58252;SDS011;44050;48.884;8.762;2023-03-01T13:20:50;9.15;;;7.30;;
58252;SDS011;44050;48.884;8.762;2023-03-01T13:41:52;11.65;;;7.43;;
58252;SDS011;44050;48.884;8.762;2023-03-01T13:46:58;12.27;;;8.20;;
58252;SDS011;44050;48.884;8.762;2023-03-01T13:49:31;10.35;;;7.18;;
58252;SDS011;44050;48.884;8.762;2023-03-01T13:52:04;12.93;;;6.53;;
58252;SDS011;44050;48.884;8.762;2023-03-01T13:54:36;9.75;;;8.10;;
58252;SDS011;44050;48.884;8.762;2023-03-01T13:57:12;8.00;;;7.22;;
58252;SDS011;44050;48.884;8.762;2023-03-01T14:02:20;9.47;;;6.20;;
58252;SDS011;44050;48.884;8.762;2023-03-01T14:04:57;7.20;;;6.43;;
58252;SDS011;44050;48.884;8.762;2023-03-01T14:07:29;9.65;;;7.88;;
58252;SDS011;44050;48.884;8.762;2023-03-01T14:22:50;8.45;;;6.75;;
58252;SDS011;44050;48.884;8.762;2023-03-01T14:25:31;8.40;;;7.45;;
58252;SDS011;44050;48.884;8.762;2023-03-01T14:30:34;7.70;;;5.53;;
58252;SDS011;44050;48.884;8.762;2023-03-01T14:33:17;9.40;;;6.97;;
58252;SDS011;44050;48.884;8.762;2023-03-01T14:35:53;12.13;;;7.53;;
58252;SDS011;44050;48.884;8.762;2023-03-01T14:38:34;8.88;;;6.72;;
58252;SDS011;44050;48.884;8.762;2023-03-01T14:41:16;9.55;;;6.65;;
58252;SDS011;44050;48.884;8.762;2023-03-01T14:43:55;10.40;;;7.20;;
58252;SDS011;44050;48.884;8.762;2023-03-01T14:51:36;9.40;;;6.22;;
58252;SDS011;44050;48.884;8.762;2023-03-01T14:54:18;8.80;;;6.30;;
58252;SDS011;44050;48.884;8.762;2023-03-01T14:56:50;9.25;;;6.68;;
58252;SDS011;44050;48.884;8.762;2023-03-01T14:59:22;8.30;;;7.45;;
58252;SDS011;44050;48.884;8.762;2023-03-01T15:01:55;10.63;;;6.68;;
58252;SDS011;44050;48.884;8.762;2023-03-01T15:04:27;7.10;;;6.43;;
58252;SDS011;44050;48.884;8.762;2023-03-01T15:07:01;8.18;;;5.53;;
58252;SDS011;44050;48.884;8.762;2023-03-01T15:09:35;9.88;;;6.63;;
58252;SDS011;44050;48.884;8.762;2023-03-01T15:14:41;6.67;;;5.07;;
58252;SDS011;44050;48.884;8.762;2023-03-01T15:17:19;7.55;;;6.80;;
58252;SDS011;44050;48.884;8.762;2023-03-01T15:19:50;15.32;;;6.18;;
58252;SDS011;44050;48.884;8.762;2023-03-01T15:22:21;9.55;;;7.03;;
58252;SDS011;44050;48.884;8.762;2023-03-01T15:24:52;12.07;;;7.60;;
58252;SDS011;44050;48.884;8.762;2023-03-01T15:27:23;7.95;;;7.07;;
58252;SDS011;44050;48.884;8.762;2023-03-01T15:32:30;7.23;;;6.50;;
58252;SDS011;44050;48.884;8.762;2023-03-01T15:35:09;8.30;;;6.32;;
58252;SDS011;44050;48.884;8.762;2023-03-01T15:37:51;7.53;;;6.40;;
58252;SDS011;44050;48.884;8.762;2023-03-01T15:40:29;8.35;;;4.93;;
58252;SDS011;44050;48.884;8.762;2023-03-01T15:43:04;10.90;;;7.55;;
58252;SDS011;44050;48.884;8.762;2023-03-01T15:45:35;7.72;;;6.32;;
58252;SDS011;44050;48.884;8.762;2023-03-01T15:48:17;12.13;;;7.55;;
58252;SDS011;44050;48.884;8.762;2023-03-01T15:50:55;9.30;;;6.65;;
58252;SDS011;44050;48.884;8.762;2023-03-01T15:53:28;9.80;;;6.18;;
58252;SDS011;44050;48.884;8.762;2023-03-01T15:55:58;7.53;;;6.40;;
58252;SDS011;44050;48.884;8.762;2023-03-01T15:58:29;13.52;;;7.35;;
58252;SDS011;44050;48.884;8.762;2023-03-01T16:01:07;6.70;;;6.00;;
58252;SDS011;44050;48.884;8.762;2023-03-01T16:03:40;8.02;;;6.90;;
58252;SDS011;44050;48.884;8.762;2023-03-01T16:06:11;9.70;;;6.93;;
58252;SDS011;44050;48.884;8.762;2023-03-01T16:08:41;11.10;;;7.35;;
58252;SDS011;44050;48.884;8.762;2023-03-01T16:11:17;9.75;;;7.18;;
58252;SDS011;44050;48.884;8.762;2023-03-01T16:13:51;12.38;;;5.93;;
58252;SDS011;44050;48.884;8.762;2023-03-01T16:16:23;8.82;;;6.95;;
58252;SDS011;44050;48.884;8.762;2023-03-01T16:18:57;8.75;;;7.07;;
58252;SDS011;44050;48.884;8.762;2023-03-01T16:21:28;5.88;;;5.18;;
58252;SDS011;44050;48.884;8.762;2023-03-01T16:23:58;9.15;;;6.68;;
58252;SDS011;44050;48.884;8.762;2023-03-01T16:26:29;5.97;;;5.35;;
58252;SDS011;44050;48.884;8.762;2023-03-01T16:29:00;5.35;;;4.85;;
58252;SDS011;44050;48.884;8.762;2023-03-01T16:31:32;10.70;;;6.70;;
58252;SDS011;44050;48.884;8.762;2023-03-01T16:34:03;8.30;;;6.28;;
58252;SDS011;44050;48.884;8.762;2023-03-01T16:36:45;7.03;;;5.93;;
58252;SDS011;44050;48.884;8.762;2023-03-01T16:39:48;7.55;;;5.95;;
58252;SDS011;44050;48.884;8.762;2023-03-01T16:42:23;8.98;;;6.78;;
58252;SDS011;44050;48.884;8.762;2023-03-01T16:44:55;10.35;;;6.43;;
58252;SDS011;44050;48.884;8.762;2023-03-01T16:49:56;5.47;;;4.47;;
58252;SDS011;44050;48.884;8.762;2023-03-01T16:52:27;9.40;;;6.13;;
58252;SDS011;44050;48.884;8.762;2023-03-01T16:54:57;10.25;;;6.78;;
58252;SDS011;44050;48.884;8.762;2023-03-01T16:57:28;6.57;;;5.97;;
58252;SDS011;44050;48.884;8.762;2023-03-01T16:59:59;8.40;;;7.07;;
58252;SDS011;44050;48.884;8.762;2023-03-01T17:02:30;8.18;;;6.72;;
58252;SDS011;44050;48.884;8.762;2023-03-01T17:07:32;7.15;;;5.75;;
58252;SDS011;44050;48.884;8.762;2023-03-01T17:10:04;8.98;;;7.22;;
58252;SDS011;44050;48.884;8.762;2023-03-01T17:12:35;8.85;;;5.43;;
58252;SDS011;44050;48.884;8.762;2023-03-01T17:15:06;7.40;;;5.72;;
58252;SDS011;44050;48.884;8.762;2023-03-01T17:17:37;6.10;;;4.22;;
58252;SDS011;44050;48.884;8.762;2023-03-01T17:20:07;5.60;;;3.40;;
58252;SDS011;44050;48.884;8.762;2023-03-01T17:25:10;8.53;;;6.90;;
58252;SDS011;44050;48.884;8.762;2023-03-01T17:27:41;8.13;;;4.75;;
58252;SDS011;44050;48.884;8.762;2023-03-01T17:30:12;8.20;;;5.75;;
58252;SDS011;44050;48.884;8.762;2023-03-01T17:32:43;7.75;;;5.20;;
58252;SDS011;44050;48.884;8.762;2023-03-01T17:35:14;10.07;;;6.68;;
58252;SDS011;44050;48.884;8.762;2023-03-01T17:37:45;6.53;;;4.82;;
58252;SDS011;44050;48.884;8.762;2023-03-01T17:40:16;8.30;;;5.63;;
58252;SDS011;44050;48.884;8.762;2023-03-01T17:42:47;8.52;;;6.45;;
58252;SDS011;44050;48.884;8.762;2023-03-01T17:45:18;5.65;;;4.78;;
58252;SDS011;44050;48.884;8.762;2023-03-01T17:47:49;9.73;;;6.30;;
58252;SDS011;44050;48.884;8.762;2023-03-01T17:50:20;6.15;;;4.30;;
58252;SDS011;44050;48.884;8.762;2023-03-01T17:52:51;6.50;;;4.93;;
58252;SDS011;44050;48.884;8.762;2023-03-01T17:55:22;9.27;;;5.72;;